createdAt,value
2018-05-02T00:00:43.552Z,997.38
2018-05-02T00:01:43.625Z,997.36
2018-05-02T00:02:43.606Z,997.34
2018-05-02T00:03:43.635Z,997.34
2018-05-02T00:04:43.662Z,997.35
2018-05-02T00:05:43.689Z,997.40
2018-05-02T00:06:43.735Z,997.39
2018-05-02T00:07:43.743Z,997.40
2018-05-02T00:08:43.773Z,997.41
2018-05-02T00:09:43.799Z,997.43
2018-05-02T00:10:43.824Z,997.41
2018-05-02T00:11:43.852Z,997.42
2018-05-02T00:12:43.879Z,997.41
2018-05-02T00:13:43.907Z,997.44
2018-05-02T00:14:43.936Z,997.40
2018-05-02T00:15:43.961Z,997.41
2018-05-02T00:16:43.988Z,997.40
2018-05-02T00:17:44.015Z,997.46
2018-05-02T00:18:44.042Z,997.45
2018-05-02T00:19:44.070Z,997.42
2018-05-02T00:20:44.133Z,997.39
2018-05-02T00:21:44.126Z,997.42
2018-05-02T00:22:44.152Z,997.42
2018-05-02T00:23:44.179Z,997.42
2018-05-02T00:24:44.206Z,997.42
2018-05-02T00:25:44.234Z,997.41
2018-05-02T00:26:44.260Z,997.38
2018-05-02T00:27:44.290Z,997.36
2018-05-02T00:28:44.317Z,997.34
2018-05-02T00:29:44.342Z,997.39
2018-05-02T00:30:44.369Z,997.41
2018-05-02T00:31:44.400Z,997.40
2018-05-02T00:32:44.424Z,997.41
2018-05-02T00:33:44.451Z,997.43
2018-05-02T00:34:44.478Z,997.42
2018-05-02T00:35:44.505Z,997.37
2018-05-02T00:36:44.572Z,997.43
2018-05-02T00:37:44.564Z,997.44
2018-05-02T00:38:44.588Z,997.48
2018-05-02T00:39:44.615Z,997.45
2018-05-02T00:40:44.643Z,997.43
2018-05-02T00:41:44.669Z,997.44
2018-05-02T00:42:44.697Z,997.41
2018-05-02T00:43:44.724Z,997.41
2018-05-02T00:44:44.750Z,997.43
2018-05-02T00:45:44.791Z,997.42
2018-05-02T00:46:44.806Z,997.43
2018-05-02T00:47:44.833Z,997.45
2018-05-02T00:48:44.860Z,997.47
2018-05-02T00:49:44.888Z,997.45
2018-05-02T00:50:44.914Z,997.44
2018-05-02T00:51:44.943Z,997.46
2018-05-02T00:52:44.979Z,997.42
2018-05-02T00:53:44.996Z,997.42
2018-05-02T00:54:45.024Z,997.37
2018-05-02T00:55:45.052Z,997.37
2018-05-02T00:56:45.095Z,997.37
2018-05-02T00:57:45.107Z,997.37
2018-05-02T00:58:45.149Z,997.30
2018-05-02T00:59:45.160Z,997.33
2018-05-02T01:00:45.187Z,997.30
2018-05-02T01:01:45.215Z,997.28
2018-05-02T01:02:45.241Z,997.32
2018-05-02T01:03:45.268Z,997.38
2018-05-02T01:04:45.296Z,997.34
2018-05-02T01:05:45.323Z,997.30
2018-05-02T01:06:45.350Z,997.32
2018-05-02T01:07:45.383Z,997.28
2018-05-02T01:08:45.435Z,997.28
2018-05-02T01:09:45.432Z,997.27
2018-05-02T01:10:45.460Z,997.30
2018-05-02T01:11:45.486Z,997.29
2018-05-02T01:12:45.517Z,997.28
2018-05-02T01:13:45.541Z,997.26
2018-05-02T01:14:45.569Z,997.26
2018-05-02T01:15:45.595Z,997.26
2018-05-02T01:16:45.623Z,997.26
2018-05-02T01:17:45.650Z,997.24
2018-05-02T01:18:45.681Z,997.21
2018-05-02T01:19:45.704Z,997.25
2018-05-02T01:20:45.738Z,997.21
2018-05-02T01:21:45.759Z,997.22
2018-05-02T01:22:45.786Z,997.20
2018-05-02T01:23:45.813Z,997.16
2018-05-02T01:24:45.841Z,997.15
2018-05-02T01:25:45.868Z,997.14
2018-05-02T01:26:45.919Z,997.14
2018-05-02T01:27:45.922Z,997.11
2018-05-02T01:28:45.949Z,997.11
2018-05-02T01:29:45.977Z,997.11
2018-05-02T01:30:46.003Z,997.10
2018-05-02T01:31:46.049Z,997.11
2018-05-02T01:32:46.058Z,997.04
2018-05-02T01:33:46.086Z,997.05
2018-05-02T01:34:46.115Z,997.05
2018-05-02T01:35:46.144Z,997.04
2018-05-02T01:36:46.168Z,996.99
2018-05-02T01:37:46.196Z,996.97
2018-05-02T01:38:46.222Z,996.95
2018-05-02T01:39:46.253Z,996.97
2018-05-02T01:40:46.276Z,996.91
2018-05-02T01:41:46.304Z,996.94
2018-05-02T01:42:46.331Z,996.94
2018-05-02T01:43:46.359Z,996.94
2018-05-02T01:44:46.385Z,996.93
2018-05-02T01:45:46.414Z,996.95
2018-05-02T01:46:46.499Z,996.94
2018-05-02T01:47:46.466Z,996.94
2018-05-02T01:48:46.495Z,996.95
2018-05-02T01:49:46.525Z,996.95
2018-05-02T01:50:46.548Z,996.91
2018-05-02T01:51:46.576Z,996.92
2018-05-02T01:52:46.604Z,996.91
2018-05-02T01:53:46.631Z,996.92
2018-05-02T01:54:46.657Z,996.87
2018-05-02T01:55:46.685Z,996.89
2018-05-02T01:56:46.712Z,996.89
2018-05-02T01:57:46.744Z,996.83
2018-05-02T01:58:46.766Z,996.87
2018-05-02T01:59:46.793Z,996.87
2018-05-02T02:00:46.821Z,996.90
2018-05-02T02:01:46.848Z,996.90
2018-05-02T02:02:46.875Z,996.90
2018-05-02T02:03:46.902Z,996.83
2018-05-02T02:04:46.930Z,996.82
2018-05-02T02:05:46.958Z,996.85
2018-05-02T02:06:46.984Z,996.84
2018-05-02T02:07:47.011Z,996.83
2018-05-02T02:08:47.039Z,996.86
2018-05-02T02:09:47.068Z,996.89
2018-05-02T02:10:47.093Z,996.86
2018-05-02T02:11:47.123Z,996.86
2018-05-02T02:12:47.148Z,996.85
2018-05-02T02:13:47.175Z,996.84
2018-05-02T02:14:47.201Z,996.83
2018-05-02T02:15:47.229Z,996.86
2018-05-02T02:16:47.256Z,996.78
2018-05-02T02:17:47.283Z,996.83
2018-05-02T02:18:47.309Z,996.84
2018-05-02T02:19:47.339Z,996.85
2018-05-02T02:20:47.365Z,996.83
2018-05-02T02:21:47.393Z,996.80
2018-05-02T02:22:47.420Z,996.84
2018-05-02T02:23:47.447Z,996.83
2018-05-02T02:24:47.506Z,996.80
2018-05-02T02:25:47.501Z,996.78
2018-05-02T02:26:47.528Z,996.79
2018-05-02T02:27:47.559Z,996.78
2018-05-02T02:28:47.588Z,996.77
2018-05-02T02:29:47.612Z,996.77
2018-05-02T02:30:47.654Z,996.77
2018-05-02T02:31:47.664Z,996.74
2018-05-02T02:32:47.691Z,996.79
2018-05-02T02:33:47.720Z,996.77
2018-05-02T02:34:47.759Z,996.81
2018-05-02T02:35:47.773Z,996.78
2018-05-02T02:36:47.806Z,996.79
2018-05-02T02:37:47.830Z,996.79
2018-05-02T02:38:47.854Z,996.78
2018-05-02T02:39:47.881Z,996.74
2018-05-02T02:40:47.910Z,996.71
2018-05-02T02:41:47.937Z,996.68
2018-05-02T02:42:47.972Z,996.65
2018-05-02T02:43:47.990Z,996.67
2018-05-02T02:44:48.018Z,996.64
2018-05-02T02:45:48.046Z,996.62
2018-05-02T02:46:48.073Z,996.57
2018-05-02T02:47:48.100Z,996.53
2018-05-02T02:48:48.126Z,996.46
2018-05-02T02:49:48.164Z,996.44
2018-05-02T02:50:48.183Z,996.44
2018-05-02T02:51:48.209Z,996.41
2018-05-02T02:52:48.239Z,996.44
2018-05-02T02:53:48.263Z,996.40
2018-05-02T02:54:48.289Z,996.39
2018-05-02T02:55:48.316Z,996.33
2018-05-02T02:56:48.344Z,996.34
2018-05-02T02:57:48.371Z,996.31
2018-05-02T02:58:48.398Z,996.38
2018-05-02T02:59:48.425Z,996.40
2018-05-02T03:00:48.452Z,996.41
2018-05-02T03:01:48.480Z,996.46
2018-05-02T03:02:48.508Z,996.38
2018-05-02T03:03:48.534Z,996.42
2018-05-02T03:04:48.562Z,996.42
2018-05-02T03:05:48.590Z,996.47
2018-05-02T03:06:48.616Z,996.45
2018-05-02T03:07:48.679Z,996.43
2018-05-02T03:08:48.718Z,996.44
2018-05-02T03:09:48.700Z,996.45
2018-05-02T03:10:48.724Z,996.43
2018-05-02T03:11:48.751Z,996.45
2018-05-02T03:12:48.779Z,996.44
2018-05-02T03:13:48.828Z,996.39
2018-05-02T03:14:48.833Z,996.39
2018-05-02T03:15:48.860Z,996.35
2018-05-02T03:16:48.887Z,996.39
2018-05-02T03:17:48.917Z,996.34
2018-05-02T03:18:48.949Z,996.38
2018-05-02T03:19:48.997Z,996.42
2018-05-02T03:20:48.997Z,996.42
2018-05-02T03:21:49.024Z,996.39
2018-05-02T03:22:49.056Z,996.37
2018-05-02T03:23:49.116Z,996.42
2018-05-02T03:24:49.105Z,996.37
2018-05-02T03:25:49.134Z,996.49
2018-05-02T03:26:49.159Z,996.46
2018-05-02T03:27:49.186Z,996.46
2018-05-02T03:28:49.213Z,996.46
2018-05-02T03:29:49.241Z,996.48
2018-05-02T03:30:49.278Z,996.46
2018-05-02T03:31:49.301Z,996.46
2018-05-02T03:32:49.322Z,996.46
2018-05-02T03:33:49.354Z,996.44
2018-05-02T03:34:49.376Z,996.40
2018-05-02T03:35:49.404Z,996.42
2018-05-02T03:36:49.431Z,996.39
2018-05-02T03:37:49.458Z,996.40
2018-05-02T03:38:49.485Z,996.33
2018-05-02T03:39:49.512Z,996.31
2018-05-02T03:40:49.540Z,996.24
2018-05-02T03:41:49.567Z,996.16
2018-05-02T03:42:49.593Z,996.15
2018-05-02T03:43:49.621Z,996.14
2018-05-02T03:44:49.679Z,996.11
2018-05-02T03:45:49.675Z,996.16
2018-05-02T03:46:49.704Z,996.10
2018-05-02T03:47:49.731Z,996.12
2018-05-02T03:48:49.757Z,996.12
2018-05-02T03:49:49.785Z,996.12
2018-05-02T03:50:49.811Z,996.09
2018-05-02T03:51:49.839Z,996.05
2018-05-02T03:52:49.867Z,996.02
2018-05-02T03:53:49.894Z,995.98
2018-05-02T03:54:49.920Z,995.99
2018-05-02T03:55:49.951Z,995.93
2018-05-02T03:56:49.987Z,995.92
2018-05-02T03:57:50.004Z,995.91
2018-05-02T03:58:50.028Z,995.87
2018-05-02T03:59:50.085Z,995.89
2018-05-02T04:00:50.084Z,995.92
2018-05-02T04:01:50.111Z,995.93
2018-05-02T04:02:50.138Z,995.97
2018-05-02T04:03:50.165Z,995.96
2018-05-02T04:04:50.194Z,995.95
2018-05-02T04:05:50.253Z,995.93
2018-05-02T04:06:50.252Z,995.97
2018-05-02T04:07:50.274Z,996.00
2018-05-02T04:08:50.303Z,996.06
2018-05-02T04:09:50.329Z,996.08
2018-05-02T04:10:50.355Z,996.15
2018-05-02T04:11:50.396Z,996.15
2018-05-02T04:12:50.411Z,996.16
2018-05-02T04:13:50.438Z,996.15
2018-05-02T04:14:50.465Z,996.11
2018-05-02T04:15:50.492Z,996.13
2018-05-02T04:16:50.552Z,996.13
2018-05-02T04:17:50.547Z,996.10
2018-05-02T04:18:50.604Z,996.10
2018-05-02T04:19:50.603Z,996.09
2018-05-02T04:20:50.638Z,996.10
2018-05-02T04:21:50.656Z,996.01
2018-05-02T04:22:50.682Z,996.07
2018-05-02T04:23:50.718Z,996.03
2018-05-02T04:24:50.737Z,996.04
2018-05-02T04:25:50.764Z,996.04
2018-05-02T04:26:50.792Z,996.03
2018-05-02T04:27:50.820Z,995.99
2018-05-02T04:28:50.846Z,996.03
2018-05-02T04:29:50.873Z,996.03
2018-05-02T04:30:50.915Z,996.07
2018-05-02T04:31:50.928Z,996.09
2018-05-02T04:32:50.955Z,996.10
2018-05-02T04:33:51.003Z,996.13
2018-05-02T04:34:51.009Z,996.18
2018-05-02T04:35:51.036Z,996.19
2018-05-02T04:36:51.065Z,996.26
2018-05-02T04:37:51.091Z,996.32
2018-05-02T04:38:51.131Z,996.39
2018-05-02T04:39:51.146Z,996.46
2018-05-02T04:40:51.172Z,996.48
2018-05-02T04:41:51.203Z,996.49
2018-05-02T04:42:51.227Z,996.42
2018-05-02T04:43:51.256Z,996.42
2018-05-02T04:44:51.321Z,996.34
2018-05-02T04:45:51.333Z,996.36
2018-05-02T04:46:51.335Z,996.37
2018-05-02T04:47:51.364Z,996.36
2018-05-02T04:48:51.391Z,996.38
2018-05-02T04:49:51.432Z,996.39
2018-05-02T04:50:51.445Z,996.35
2018-05-02T04:51:51.472Z,996.38
2018-05-02T04:52:51.499Z,996.34
2018-05-02T04:53:51.527Z,996.34
2018-05-02T04:54:51.554Z,996.30
2018-05-02T04:55:51.581Z,996.32
2018-05-02T04:56:51.618Z,996.36
2018-05-02T04:57:51.636Z,996.36
2018-05-02T04:58:51.664Z,996.40
2018-05-02T04:59:51.694Z,996.41
2018-05-02T05:00:51.718Z,996.40
2018-05-02T05:01:51.774Z,996.48
2018-05-02T05:02:51.772Z,996.51
2018-05-02T05:03:51.800Z,996.52
2018-05-02T05:04:51.834Z,996.58
2018-05-02T05:05:51.855Z,996.58
2018-05-02T05:06:51.881Z,996.67
2018-05-02T05:07:51.908Z,996.66
2018-05-02T05:08:51.953Z,996.61
2018-05-02T05:09:51.966Z,996.69
2018-05-02T05:10:51.996Z,996.64
2018-05-02T05:11:52.018Z,996.62
2018-05-02T05:12:52.046Z,996.60
2018-05-02T05:13:52.073Z,996.59
2018-05-02T05:14:52.099Z,996.62
2018-05-02T05:15:52.127Z,996.61
2018-05-02T05:16:52.154Z,996.63
2018-05-02T05:17:52.182Z,996.66
2018-05-02T05:18:52.211Z,996.62
2018-05-02T05:19:52.238Z,996.62
2018-05-02T05:20:52.263Z,996.64
2018-05-02T05:21:52.292Z,996.63
2018-05-02T05:22:52.318Z,996.62
2018-05-02T05:23:52.345Z,996.60
2018-05-02T05:24:52.374Z,996.58
2018-05-02T05:25:52.402Z,996.55
2018-05-02T05:26:52.428Z,996.54
2018-05-02T05:27:52.455Z,996.52
2018-05-02T05:28:52.482Z,996.48
2018-05-02T05:29:52.515Z,996.46
2018-05-02T05:30:52.537Z,996.48
2018-05-02T05:31:52.565Z,996.47
2018-05-02T05:32:52.593Z,996.50
2018-05-02T05:33:52.620Z,996.44
2018-05-02T05:34:52.646Z,996.46
2018-05-02T05:35:52.708Z,996.43
2018-05-02T05:36:52.704Z,996.41
2018-05-02T05:37:52.734Z,996.42
2018-05-02T05:38:52.788Z,996.39
2018-05-02T05:39:52.784Z,996.43
2018-05-02T05:40:52.812Z,996.39
2018-05-02T05:41:52.839Z,996.43
2018-05-02T05:42:52.866Z,996.45
2018-05-02T05:43:52.896Z,996.38
2018-05-02T05:44:52.945Z,996.36
2018-05-02T05:45:52.949Z,996.37
2018-05-02T05:46:52.976Z,996.38
2018-05-02T05:47:53.003Z,996.37
2018-05-02T05:48:53.031Z,996.36
2018-05-02T05:49:53.068Z,996.36
2018-05-02T05:50:53.087Z,996.39
2018-05-02T05:51:53.134Z,996.37
2018-05-02T05:52:53.149Z,996.33
2018-05-02T05:53:53.193Z,996.33
2018-05-02T05:54:53.196Z,996.33
2018-05-02T05:55:53.223Z,996.31
2018-05-02T05:56:53.252Z,996.29
2018-05-02T05:57:53.294Z,996.31
2018-05-02T05:58:53.306Z,996.34
2018-05-02T05:59:53.337Z,996.38
2018-05-02T06:00:53.375Z,996.38
2018-05-02T06:01:53.387Z,996.41
2018-05-02T06:02:53.414Z,996.40
2018-05-02T06:03:53.443Z,996.41
2018-05-02T06:04:53.472Z,996.38
2018-05-02T06:05:53.498Z,996.32
2018-05-02T06:06:53.525Z,996.35
2018-05-02T06:07:53.552Z,996.33
2018-05-02T06:08:53.580Z,996.35
2018-05-02T06:09:53.614Z,996.36
2018-05-02T06:10:53.634Z,996.33
2018-05-02T06:11:53.663Z,996.35
2018-05-02T06:12:53.697Z,996.36
2018-05-02T06:13:53.717Z,996.32
2018-05-02T06:14:53.745Z,996.37
2018-05-02T06:15:53.774Z,996.34
2018-05-02T06:16:53.800Z,996.36
2018-05-02T06:17:53.828Z,996.36
2018-05-02T06:18:53.855Z,996.39
2018-05-02T06:19:53.883Z,996.42
2018-05-02T06:20:53.913Z,996.45
2018-05-02T06:21:53.938Z,996.45
2018-05-02T06:22:53.964Z,996.47
2018-05-02T06:23:53.992Z,996.52
2018-05-02T06:24:54.029Z,996.53
2018-05-02T06:25:54.049Z,996.57
2018-05-02T06:26:54.085Z,996.56
2018-05-02T06:27:54.101Z,996.56
2018-05-02T06:28:54.129Z,996.62
2018-05-02T06:29:54.159Z,996.58
2018-05-02T06:30:54.186Z,996.59
2018-05-02T06:31:54.248Z,996.62
2018-05-02T06:32:54.240Z,996.66
2018-05-02T06:33:54.303Z,996.62
2018-05-02T06:34:54.310Z,996.66
2018-05-02T06:35:54.327Z,996.63
2018-05-02T06:36:54.350Z,996.67
2018-05-02T06:37:54.392Z,996.66
2018-05-02T06:38:54.404Z,996.67
2018-05-02T06:39:54.436Z,996.70
2018-05-02T06:40:54.461Z,996.66
2018-05-02T06:41:54.488Z,996.68
2018-05-02T06:42:54.514Z,996.72
2018-05-02T06:43:54.542Z,996.67
2018-05-02T06:44:54.578Z,996.69
2018-05-02T06:45:54.601Z,996.71
2018-05-02T06:46:54.623Z,996.69
2018-05-02T06:47:54.659Z,996.70
2018-05-02T06:48:54.685Z,996.72
2018-05-02T06:49:54.721Z,996.69
2018-05-02T06:50:54.742Z,996.69
2018-05-02T06:51:54.770Z,996.73
2018-05-02T06:52:54.792Z,996.75
2018-05-02T06:53:54.817Z,996.70
2018-05-02T06:54:54.845Z,996.74
2018-05-02T06:55:54.871Z,996.73
2018-05-02T06:56:54.919Z,996.72
2018-05-02T06:57:54.945Z,996.70
2018-05-02T06:58:54.954Z,996.69
2018-05-02T06:59:54.983Z,996.69
2018-05-02T07:00:55.029Z,996.70
2018-05-02T07:01:55.037Z,996.74
2018-05-02T07:02:55.064Z,996.68
2018-05-02T07:03:55.099Z,996.67
2018-05-02T07:04:55.134Z,996.62
2018-05-02T07:05:55.157Z,996.60
2018-05-02T07:06:55.182Z,996.59
2018-05-02T07:07:55.211Z,996.57
2018-05-02T07:08:55.231Z,996.58
2018-05-02T07:09:55.267Z,996.58
2018-05-02T07:10:55.304Z,996.50
2018-05-02T07:11:55.320Z,996.49
2018-05-02T07:12:55.340Z,996.45
2018-05-02T07:13:55.399Z,996.44
2018-05-02T07:14:55.403Z,996.42
2018-05-02T07:15:55.427Z,996.42
2018-05-02T07:16:55.457Z,996.42
2018-05-02T07:17:55.481Z,996.43
2018-05-02T07:18:55.509Z,996.46
2018-05-02T07:19:55.534Z,996.44
2018-05-02T07:20:55.571Z,996.45
2018-05-02T07:21:55.591Z,996.49
2018-05-02T07:22:55.614Z,996.49
2018-05-02T07:23:55.781Z,996.49
2018-05-02T07:24:55.725Z,996.48
2018-05-02T07:25:55.697Z,996.50
2018-05-02T07:26:55.728Z,996.48
2018-05-02T07:27:55.755Z,996.52
2018-05-02T07:28:55.779Z,996.52
2018-05-02T07:29:55.811Z,996.51
2018-05-02T07:30:55.836Z,996.52
2018-05-02T07:31:55.881Z,996.53
2018-05-02T07:32:56.098Z,996.52
2018-05-02T07:33:55.940Z,996.50
2018-05-02T07:34:55.949Z,996.52
2018-05-02T07:35:55.972Z,996.51
2018-05-02T07:36:56.004Z,996.47
2018-05-02T07:37:56.031Z,996.47
2018-05-02T07:38:56.055Z,996.50
2018-05-02T07:39:56.083Z,996.49
2018-05-02T07:40:56.844Z,996.46
2018-05-02T07:41:56.142Z,996.50
2018-05-02T07:42:56.165Z,996.51
2018-05-02T07:43:56.198Z,996.48
2018-05-02T07:44:56.221Z,996.47
2018-05-02T07:45:56.256Z,996.52
2018-05-02T07:46:56.275Z,996.52
2018-05-02T07:47:56.313Z,996.50
2018-05-02T07:48:56.343Z,996.54
2018-05-02T07:49:56.368Z,996.52
2018-05-02T07:50:56.437Z,996.49
2018-05-02T07:51:57.353Z,996.49
2018-05-02T07:52:56.481Z,996.48
2018-05-02T07:53:56.480Z,996.45
2018-05-02T07:54:56.503Z,996.47
2018-05-02T07:55:56.530Z,996.44
2018-05-02T07:56:56.555Z,996.52
2018-05-02T07:57:56.591Z,996.56
2018-05-02T07:58:56.609Z,996.60
2018-05-02T07:59:56.636Z,996.62
2018-05-02T08:00:56.663Z,996.63
2018-05-02T08:01:56.691Z,996.64
2018-05-02T08:02:56.716Z,996.63
2018-05-02T08:03:56.747Z,996.63
2018-05-02T08:04:56.808Z,996.62
2018-05-02T08:05:56.800Z,996.61
2018-05-02T08:06:56.831Z,996.59
2018-05-02T08:07:56.865Z,996.56
2018-05-02T08:08:56.886Z,996.57
2018-05-02T08:09:56.948Z,996.56
2018-05-02T08:10:56.965Z,996.56
2018-05-02T08:11:56.965Z,996.55
2018-05-02T08:12:57.029Z,996.56
2018-05-02T08:13:57.028Z,996.55
2018-05-02T08:14:57.050Z,996.54
2018-05-02T08:15:57.075Z,996.52
2018-05-02T08:16:57.102Z,996.50
2018-05-02T08:17:57.130Z,996.49
2018-05-02T08:18:57.157Z,996.46
2018-05-02T08:19:57.189Z,996.45
2018-05-02T08:20:57.215Z,996.47
2018-05-02T08:21:57.243Z,996.47
2018-05-02T08:22:57.268Z,996.37
2018-05-02T08:23:57.296Z,996.41
2018-05-02T08:24:57.331Z,996.44
2018-05-02T08:25:57.364Z,996.37
2018-05-02T08:26:57.378Z,996.40
2018-05-02T08:27:57.418Z,996.36
2018-05-02T08:28:57.435Z,996.38
2018-05-02T08:29:57.470Z,996.35
2018-05-02T08:30:57.502Z,996.40
2018-05-02T08:31:57.515Z,996.38
2018-05-02T08:32:57.547Z,996.37
2018-05-02T08:33:57.571Z,996.36
2018-05-02T08:34:57.618Z,996.31
2018-05-02T08:35:57.628Z,996.33
2018-05-02T08:36:57.656Z,996.34
2018-05-02T08:37:57.682Z,996.35
2018-05-02T08:38:57.744Z,996.32
2018-05-02T08:39:57.737Z,996.36
2018-05-02T08:40:57.767Z,996.30
2018-05-02T08:41:57.821Z,996.34
2018-05-02T08:42:57.819Z,996.31
2018-05-02T08:43:57.850Z,996.31
2018-05-02T08:44:57.917Z,996.30
2018-05-02T08:45:57.907Z,996.33
2018-05-02T08:46:57.931Z,996.37
2018-05-02T08:47:57.958Z,996.36
2018-05-02T08:48:57.990Z,996.30
2018-05-02T08:49:58.047Z,996.33
2018-05-02T08:50:58.041Z,996.25
2018-05-02T08:51:58.070Z,996.24
2018-05-02T08:52:58.130Z,996.21
2018-05-02T08:53:58.124Z,996.23
2018-05-02T08:54:58.158Z,996.20
2018-05-02T08:55:58.179Z,996.19
2018-05-02T08:56:58.208Z,996.17
2018-05-02T08:57:58.240Z,996.14
2018-05-02T08:58:58.268Z,996.18
2018-05-02T08:59:58.323Z,996.17
2018-05-02T09:00:58.337Z,996.18
2018-05-02T09:01:58.889Z,996.12
2018-05-02T09:02:58.382Z,996.11
2018-05-02T09:03:58.402Z,996.03
2018-05-02T09:04:59.385Z,996.06
2018-05-02T09:05:58.459Z,996.08
2018-05-02T09:06:58.487Z,996.04
2018-05-02T09:07:58.546Z,996.04
2018-05-02T09:08:58.590Z,996.05
2018-05-02T09:09:58.568Z,996.01
2018-05-02T09:10:58.598Z,995.96
2018-05-02T09:11:58.629Z,995.91
2018-05-02T09:12:58.649Z,995.89
2018-05-02T09:13:58.676Z,995.92
2018-05-02T09:14:58.710Z,995.97
2018-05-02T09:15:58.740Z,995.97
2018-05-02T09:16:58.768Z,995.98
2018-05-02T09:17:58.791Z,995.98
2018-05-02T09:18:58.827Z,996.00
2018-05-02T09:19:58.851Z,995.99
2018-05-02T09:20:58.874Z,995.98
2018-05-02T09:21:58.898Z,995.99
2018-05-02T09:22:58.929Z,995.95
2018-05-02T09:23:58.957Z,995.98
2018-05-02T09:24:58.980Z,995.93
2018-05-02T09:25:59.011Z,995.95
2018-05-02T09:26:59.039Z,995.97
2018-05-02T09:27:59.063Z,995.94
2018-05-02T09:28:59.092Z,995.91
2018-05-02T09:29:59.119Z,995.95
2018-05-02T09:30:59.145Z,995.91
2018-05-02T09:31:59.173Z,995.87
2018-05-02T09:32:59.205Z,995.88
2018-05-02T09:33:59.271Z,995.88
2018-05-02T09:34:59.256Z,995.89
2018-05-02T09:35:59.291Z,995.92
2018-05-02T09:36:59.311Z,995.93
2018-05-02T09:37:59.388Z,995.92
2018-05-02T09:38:59.367Z,995.95
2018-05-02T09:39:59.396Z,995.88
2018-05-02T09:40:59.465Z,995.88
2018-05-02T09:41:59.452Z,995.87
2018-05-02T09:42:59.481Z,995.87
2018-05-02T09:43:59.591Z,995.85
2018-05-02T09:44:59.535Z,995.87
2018-05-02T09:45:59.561Z,995.89
2018-05-02T09:46:59.618Z,995.86
2018-05-02T09:47:59.660Z,995.86
2018-05-02T09:48:59.645Z,995.88
2018-05-02T09:49:59.675Z,995.89
2018-05-02T09:50:59.698Z,995.89
2018-05-02T09:51:59.804Z,995.86
2018-05-02T09:52:59.755Z,995.84
2018-05-02T09:53:59.792Z,995.87
2018-05-02T09:54:59.809Z,995.85
2018-05-02T09:55:59.857Z,995.88
2018-05-02T09:56:59.867Z,995.84
2018-05-02T09:57:59.893Z,995.87
2018-05-02T09:58:59.920Z,995.89
2018-05-02T09:59:59.975Z,995.89
2018-05-02T10:01:00.915Z,995.89
2018-05-02T10:02:00.008Z,995.92
2018-05-02T10:03:00.032Z,995.93
2018-05-02T10:04:00.079Z,995.91
2018-05-02T10:05:00.088Z,995.94
2018-05-02T10:06:00.125Z,995.97
2018-05-02T10:07:00.143Z,995.93
2018-05-02T10:08:00.170Z,995.94
2018-05-02T10:09:00.198Z,995.93
2018-05-02T10:10:00.228Z,995.91
2018-05-02T10:11:00.275Z,995.93
2018-05-02T10:12:00.294Z,995.95
2018-05-02T10:13:00.309Z,995.98
2018-05-02T10:14:00.337Z,995.97
2018-05-02T10:15:00.363Z,996.00
2018-05-02T10:16:00.392Z,996.03
2018-05-02T10:17:00.421Z,995.96
2018-05-02T10:18:00.447Z,996.00
2018-05-02T10:19:00.475Z,995.98
2018-05-02T10:20:00.505Z,996.01
2018-05-02T10:21:00.530Z,996.02
2018-05-02T10:22:00.558Z,996.03
2018-05-02T10:23:00.591Z,996.02
2018-05-02T10:24:00.613Z,996.01
2018-05-02T10:25:00.641Z,996.00
2018-05-02T10:26:00.672Z,995.98
2018-05-02T10:27:00.749Z,996.02
2018-05-02T10:28:00.736Z,996.06
2018-05-02T10:29:00.752Z,996.02
2018-05-02T10:30:00.783Z,996.05
2018-05-02T10:31:00.842Z,996.05
2018-05-02T10:32:00.837Z,996.10
2018-05-02T10:33:00.865Z,996.12
2018-05-02T10:34:00.895Z,996.09
2018-05-02T10:35:00.918Z,996.15
2018-05-02T10:36:00.946Z,996.06
2018-05-02T10:37:01.017Z,996.09
2018-05-02T10:38:01.002Z,996.14
2018-05-02T10:39:01.034Z,996.09
2018-05-02T10:40:01.062Z,996.11
2018-05-02T10:41:01.122Z,996.06
2018-05-02T10:42:01.120Z,996.09
2018-05-02T10:43:01.175Z,996.11
2018-05-02T10:44:01.169Z,996.18
2018-05-02T10:45:01.196Z,996.19
2018-05-02T10:46:01.226Z,996.24
2018-05-02T10:47:01.253Z,996.20
2018-05-02T10:48:01.281Z,996.21
2018-05-02T10:49:01.307Z,996.26
2018-05-02T10:50:01.340Z,996.29
2018-05-02T10:51:01.372Z,996.32
2018-05-02T10:52:01.391Z,996.30
2018-05-02T10:53:01.420Z,996.33
2018-05-02T10:54:01.454Z,996.34
2018-05-02T10:55:01.473Z,996.30
2018-05-02T10:56:01.538Z,996.33
2018-05-02T10:57:01.530Z,996.31
2018-05-02T10:58:01.558Z,996.33
2018-05-02T10:59:01.584Z,996.32
2018-05-02T11:00:01.617Z,996.35
2018-05-02T11:01:01.643Z,996.40
2018-05-02T11:02:01.673Z,996.36
2018-05-02T11:03:01.697Z,996.34
2018-05-02T11:04:01.725Z,996.37
2018-05-02T11:05:01.758Z,996.36
2018-05-02T11:06:01.780Z,996.40
2018-05-02T11:07:01.807Z,996.38
2018-05-02T11:08:01.871Z,996.38
2018-05-02T11:09:01.862Z,996.40
2018-05-02T11:10:01.893Z,996.43
2018-05-02T11:11:01.918Z,996.41
2018-05-02T11:12:01.945Z,996.38
2018-05-02T11:13:01.976Z,996.41
2018-05-02T11:14:02.002Z,996.41
2018-05-02T11:15:02.028Z,996.43
2018-05-02T11:16:02.057Z,996.40
2018-05-02T11:17:02.085Z,996.37
2018-05-02T11:18:02.112Z,996.39
2018-05-02T11:19:02.141Z,996.37
2018-05-02T11:20:02.170Z,996.46
2018-05-02T11:21:02.196Z,996.43
2018-05-02T11:22:02.263Z,996.48
2018-05-02T11:23:02.250Z,996.44
2018-05-02T11:24:02.278Z,996.47
2018-05-02T11:25:02.315Z,996.52
2018-05-02T11:26:02.338Z,996.51
2018-05-02T11:27:02.360Z,996.57
2018-05-02T11:28:02.389Z,996.58
2018-05-02T11:29:02.417Z,996.62
2018-05-02T11:30:02.445Z,996.64
2018-05-02T11:31:02.471Z,996.61
2018-05-02T11:32:02.500Z,996.64
2018-05-02T11:33:02.561Z,996.66
2018-05-02T11:34:02.554Z,996.66
2018-05-02T11:35:02.582Z,996.65
2018-05-02T11:36:02.610Z,996.66
2018-05-02T11:37:02.639Z,996.65
2018-05-02T11:38:02.666Z,996.70
2018-05-02T11:39:02.693Z,996.70
2018-05-02T11:40:02.731Z,996.70
2018-05-02T11:41:02.750Z,996.70
2018-05-02T11:42:02.780Z,996.73
2018-05-02T11:43:02.803Z,996.72
2018-05-02T11:44:02.832Z,996.74
2018-05-02T11:45:02.859Z,996.79
2018-05-02T11:46:02.887Z,996.79
2018-05-02T11:47:02.914Z,996.77
2018-05-02T11:48:02.944Z,996.77
2018-05-02T11:49:02.975Z,996.80
2018-05-02T11:50:03.000Z,996.79
2018-05-02T11:51:03.026Z,996.80
2018-05-02T11:52:03.057Z,996.79
2018-05-02T11:53:03.118Z,996.77
2018-05-02T11:54:03.109Z,996.78
2018-05-02T11:55:03.141Z,996.81
2018-05-02T11:56:03.166Z,996.81
2018-05-02T11:57:03.192Z,996.85
2018-05-02T11:58:03.221Z,996.86
2018-05-02T11:59:03.246Z,996.83
2018-05-02T12:00:03.274Z,996.85
2018-05-02T12:01:03.313Z,996.91
2018-05-02T12:02:03.349Z,996.88
2018-05-02T12:03:03.374Z,996.89
2018-05-02T12:04:03.385Z,996.89
2018-05-02T12:05:03.416Z,996.87
2018-05-02T12:06:03.441Z,996.91
2018-05-02T12:07:03.468Z,996.89
2018-05-02T12:08:03.496Z,996.89
2018-05-02T12:09:03.526Z,996.89
2018-05-02T12:10:03.574Z,996.89
2018-05-02T12:11:03.579Z,996.93
2018-05-02T12:12:03.611Z,996.93
2018-05-02T12:13:03.635Z,996.92
2018-05-02T12:14:03.668Z,996.96
2018-05-02T12:15:03.700Z,996.96
2018-05-02T12:16:03.778Z,996.92
2018-05-02T12:17:03.747Z,996.91
2018-05-02T12:18:03.779Z,996.88
2018-05-02T12:19:03.805Z,996.88
2018-05-02T12:20:03.833Z,996.90
2018-05-02T12:21:03.869Z,996.94
2018-05-02T12:22:03.886Z,996.94
2018-05-02T12:23:03.914Z,996.95
2018-05-02T12:24:03.939Z,996.93
2018-05-02T12:25:03.971Z,996.94
2018-05-02T12:26:03.997Z,996.93
2018-05-02T12:27:04.022Z,996.91
2018-05-02T12:28:04.050Z,996.94
2018-05-02T12:29:04.103Z,996.91